Time;durP1;ratioP1;P1;durP2;ratioP2;P2;SDS_P1;SDS_P2;PMS_P1;PMS_P2;Temp;Humidity;BMP_temperature;BMP_pressure;BME280_temperature;BME280_humidity;BME280_pressure;Samples;Min_cycle;Max_cycle;Signal;HPM_P1;HPM_P2
2023/06/28 00:00:32;;;;;;;;;;;;;;;;;;5073315;28;19972;-71
2023/06/28 00:03:00;;;;;;;;;;;;;;;;;;5069220;28;20016;-72
2023/06/28 00:05:27;;;;;;;;;;;;;;;;;;5064488;28;20310;-72
2023/06/28 00:08:01;;;;;;;;;;;;;;;;;;5089839;27;19916;-72
2023/06/28 00:10:28;;;;;;;;;;;;;;;;;;5089336;28;20115;-72
2023/06/28 00:12:55;;;;;;;;;;;;;;;;;;5089499;28;19928;-72
2023/06/28 00:15:22;;;;;;;;;;;;;;;;;;5089959;28;20012;-72
2023/06/28 00:17:49;;;;;;;;;;;;;;;;;;5090015;28;19925;-72
2023/06/28 00:20:16;;;;;;;;;;;;;;;;;;5089441;28;20007;-71
2023/06/28 00:22:44;;;;;;;;;;;;;;;;;;5089881;28;20015;-72
2023/06/28 00:25:11;;;;;;;;;;;;;;;;;;5089056;28;20296;-72
2023/06/28 00:27:38;;;;;;;;;;;;;;;;;;5089301;28;20354;-72
2023/06/28 00:30:05;;;;;;;;;;;;;;;;;;5089524;28;20012;-71
2023/06/28 00:32:32;;;;;;;;;;;;;;;;;;5089214;28;19951;-73
2023/06/28 00:34:59;;;;;;;;;;;;;;;;;;5089912;28;20011;-72
2023/06/28 00:37:26;;;;;;;;;;;;;;;;;;5089183;28;19983;-71
2023/06/28 00:39:54;;;;;;;;;;;;;;;;;;5089072;28;20034;-71
2023/06/28 00:42:21;;;;;;;;;;;;;;;;;;5088899;28;19971;-71
2023/06/28 00:44:48;;;;;;;;;;;;;;;;;;5088497;28;19974;-71
2023/06/28 00:47:15;;;;;;;;;;;;;;;;;;5088861;28;19925;-71
2023/06/28 00:49:42;;;;;;;;;;;;;;;;;;5089270;28;19924;-71
2023/06/28 00:52:09;;;;;;;;;;;;;;;;;;5088620;28;19924;-71
2023/06/28 00:54:36;;;;;;;;;;;;;;;;;;5089194;28;20003;-71
2023/06/28 00:57:03;;;;;;;;;;;;;;;;;;5089128;28;20375;-71
2023/06/28 00:59:30;;;;;;;;;;;;;;;;;;5088636;28;20411;-71
2023/06/28 01:01:57;;;;;;;;;;;;;;;;;;5088627;28;19931;-71
2023/06/28 01:04:24;;;;;;;;;;;;;;;;;;5087938;28;20019;-71
2023/06/28 01:06:53;;;;;;;;;;;;;;;;;;5099372;28;20014;-70
2023/06/28 01:09:20;;;;;;;;;;;;;;;;;;5108744;28;19931;-71
2023/06/28 01:11:47;;;;;;;;;;;;;;;;;;5108642;28;20363;-71
2023/06/28 01:14:14;;;;;;;;;;;;;;;;;;5109161;28;20483;-71
2023/06/28 01:16:41;;;;;;;;;;;;;;;;;;5109076;28;20014;-71
2023/06/28 01:19:08;;;;;;;;;;;;;;;;;;5096718;28;19928;-71
2023/06/28 01:21:35;;;;;;;;;;;;;;;;;;5095388;28;19931;-71
2023/06/28 01:24:02;;;;;;;;;;;;;;;;;;5095098;28;19928;-71
2023/06/28 01:26:29;;;;;;;;;;;;;;;;;;5095218;28;20347;-71
2023/06/28 01:28:56;;;;;;;;;;;;;;;;;;5095271;28;19924;-71
2023/06/28 01:31:23;;;;;;;;;;;;;;;;;;5095644;28;19924;-71
2023/06/28 01:33:50;;;;;;;;;;;;;;;;;;5095423;28;20027;-71
2023/06/28 01:36:17;;;;;;;;;;;;;;;;;;5095301;28;20022;-71
2023/06/28 01:38:44;;;;;;;;;;;;;;;;;;5094814;28;20453;-70
2023/06/28 01:41:10;;;;;;;;;;;;;;;;;;5095060;28;20011;-70
2023/06/28 01:43:39;;;;;;;;;;;;;;;;;;5094511;28;19959;-70
2023/06/28 01:46:06;;;;;;;;;;;;;;;;;;5094863;28;19982;-70
2023/06/28 01:48:33;;;;;;;;;;;;;;;;;;5095199;28;20011;-70
2023/06/28 01:51:00;;;;;;;;;;;;;;;;;;5095236;28;19978;-70
2023/06/28 01:53:27;;;;;;;;;;;;;;;;;;5092854;28;20026;-69
2023/06/28 01:55:54;;;;;;;;;;;;;;;;;;5074415;28;19972;-69
2023/06/28 01:58:21;;;;;;;;;;;;;;;;;;5075199;28;20011;-69
2023/06/28 02:00:48;;;;;;;;;;;;;;;;;;5094803;28;20469;-70
2023/06/28 02:03:15;;;;;;;;;;;;;;;;;;5094835;28;19977;-72
2023/06/28 02:05:42;;;;;;;;;;;;;;;;;;5093812;28;19977;-70
2023/06/28 02:08:10;;;;;;;;;;;;;;;;;;5089670;28;20018;-70
2023/06/28 02:10:37;;;;;;;;;;;;;;;;;;5087649;28;19925;-70
2023/06/28 02:13:04;;;;;;;;;;;;;;;;;;5094379;28;19966;-70
2023/06/28 02:15:31;;;;;;;;;;;;;;;;;;5089925;28;20011;-69
2023/06/28 02:17:58;;;;;;;;;;;;;;;;;;5093164;28;20026;-69
2023/06/28 02:20:25;;;;;;;;;;;;;;;;;;5084549;28;19925;-69
2023/06/28 02:22:52;;;;;;;;;;;;;;;;;;5091947;28;20011;-69
2023/06/28 02:25:19;;;;;;;;;;;;;;;;;;5094379;28;20039;-70
2023/06/28 02:27:46;;;;;;;;;;;;;;;;;;5094623;28;20011;-70
2023/06/28 02:30:13;;;;;;;;;;;;;;;;;;5093121;28;20294;-70
2023/06/28 02:32:40;;;;;;;;;;;;;;;;;;5094527;28;19969;-70
2023/06/28 02:35:07;;;;;;;;;;;;;;;;;;5093848;28;20007;-70
2023/06/28 02:37:34;;;;;;;;;;;;;;;;;;5094024;28;20428;-70
2023/06/28 02:40:01;;;;;;;;;;;;;;;;;;5093720;28;20294;-69
2023/06/28 02:42:28;;;;;;;;;;;;;;;;;;5093973;28;19990;-70
2023/06/28 02:44:55;;;;;;;;;;;;;;;;;;5094056;28;19999;-70
2023/06/28 02:47:22;;;;;;;;;;;;;;;;;;5075126;28;20003;-70
2023/06/28 02:49:49;;;;;;;;;;;;;;;;;;5073884;28;19975;-70
2023/06/28 02:52:16;;;;;;;;;;;;;;;;;;5085446;28;20016;-70
2023/06/28 02:54:43;;;;;;;;;;;;;;;;;;5092523;28;19982;-70
2023/06/28 02:57:10;;;;;;;;;;;;;;;;;;5093330;28;20370;-70
2023/06/28 02:59:37;;;;;;;;;;;;;;;;;;5093691;28;19924;-69
2023/06/28 03:02:04;;;;;;;;;;;;;;;;;;5093758;28;19924;-70
2023/06/28 03:04:32;;;;;;;;;;;;;;;;;;5093330;28;19928;-69
2023/06/28 03:06:59;;;;;;;;;;;;;;;;;;5093316;28;19931;-69
2023/06/28 03:09:26;;;;;;;;;;;;;;;;;;5086979;28;19924;-71
2023/06/28 03:11:53;;;;;;;;;;;;;;;;;;5083098;28;20007;-69
2023/06/28 03:14:20;;;;;;;;;;;;;;;;;;5081182;28;19986;-70
2023/06/28 03:16:47;;;;;;;;;;;;;;;;;;5039459;28;20451;-71
2023/06/28 03:19:14;;;;;;;;;;;;;;;;;;5080894;28;20358;-70
2023/06/28 03:21:41;;;;;;;;;;;;;;;;;;5078845;28;20327;-70
2023/06/28 03:24:08;;;;;;;;;;;;;;;;;;5077825;28;19963;-71
2023/06/28 03:26:35;;;;;;;;;;;;;;;;;;5091794;28;20024;-70
2023/06/28 03:29:02;;;;;;;;;;;;;;;;;;5088723;28;19966;-70
2023/06/28 03:31:31;;;;;;;;;;;;;;;;;;5089919;28;19924;-71
2023/06/28 03:33:58;;;;;;;;;;;;;;;;;;5082031;28;20410;-70
2023/06/28 03:36:27;;;;;;;;;;;;;;;;;;5076821;28;19989;-72
2023/06/28 03:38:54;;;;;;;;;;;;;;;;;;5078878;28;19925;-72
2023/06/28 03:41:21;;;;;;;;;;;;;;;;;;5087537;28;20688;-69
2023/06/28 03:43:48;;;;;;;;;;;;;;;;;;5088599;28;19931;-70
2023/06/28 03:46:15;;;;;;;;;;;;;;;;;;5079795;28;20015;-69
2023/06/28 03:48:42;;;;;;;;;;;;;;;;;;5084183;28;19924;-68
2023/06/28 03:51:09;;;;;;;;;;;;;;;;;;5090191;28;20027;-71
2023/06/28 03:53:36;;;;;;;;;;;;;;;;;;5084143;28;20434;-70
2023/06/28 03:56:03;;;;;;;;;;;;;;;;;;5072785;28;19959;-71
2023/06/28 03:58:30;;;;;;;;;;;;;;;;;;5072458;28;19924;-71
2023/06/28 04:00:57;;;;;;;;;;;;;;;;;;5082371;28;20020;-71
2023/06/28 04:03:24;;;;;;;;;;;;;;;;;;5072467;28;19947;-70
2023/06/28 04:05:51;;;;;;;;;;;;;;;;;;5072124;28;20448;-70
2023/06/28 04:08:18;;;;;;;;;;;;;;;;;;5072179;28;20363;-71
2023/06/28 04:10:45;;;;;;;;;;;;;;;;;;5072693;28;19937;-71
2023/06/28 04:13:12;;;;;;;;;;;;;;;;;;5072584;28;20015;-70
2023/06/28 04:15:39;;;;;;;;;;;;;;;;;;5072531;28;20000;-70
2023/06/28 04:18:06;;;;;;;;;;;;;;;;;;5090448;28;20014;-71
2023/06/28 04:20:33;;;;;;;;;;;;;;;;;;5092384;28;20015;-70
2023/06/28 04:23:00;;;;;;;;;;;;;;;;;;5092090;28;20039;-71
2023/06/28 04:25:27;;;;;;;;;;;;;;;;;;5091917;28;19967;-70
2023/06/28 04:27:54;;;;;;;;;;;;;;;;;;5091974;28;20018;-70
2023/06/28 04:30:21;;;;;;;;;;;;;;;;;;5092069;28;20403;-70
2023/06/28 04:32:48;;;;;;;;;;;;;;;;;;5092335;28;19985;-70
2023/06/28 04:35:17;;;;;;;;;;;;;;;;;;5091835;28;20333;-71
2023/06/28 04:37:44;;;;;;;;;;;;;;;;;;5092269;28;19930;-70
2023/06/28 04:40:11;;;;;;;;;;;;;;;;;;5091835;28;20320;-71
2023/06/28 04:42:38;;;;;;;;;;;;;;;;;;5092020;28;20393;-71
2023/06/28 04:45:06;;;;;;;;;;;;;;;;;;5091717;28;20049;-71
2023/06/28 04:47:35;;;;;;;;;;;;;;;;;;5091873;28;19943;-71
2023/06/28 04:50:03;;;;;;;;;;;;;;;;;;5091631;28;19931;-70
2023/06/28 04:52:30;;;;;;;;;;;;;;;;;;5092094;28;20013;-70
2023/06/28 04:54:57;;;;;;;;;;;;;;;;;;5095787;28;19974;-70
2023/06/28 04:57:24;;;;;;;;;;;;;;;;;;5095683;28;20030;-71
2023/06/28 04:59:51;;;;;;;;;;;;;;;;;;5096253;28;20007;-71
2023/06/28 05:02:21;;;;;;;;;;;;;;;;;;5095645;28;20439;-71
2023/06/28 05:04:49;;;;;;;;;;;;;;;;;;5096193;28;19924;-72
2023/06/28 05:07:17;;;;;;;;;;;;;;;;;;5095537;28;19980;-72
2023/06/28 05:09:44;;;;;;;;;;;;;;;;;;5095602;28;19963;-72
2023/06/28 05:12:11;;;;;;;;;;;;;;;;;;5095817;28;19924;-71
2023/06/28 05:14:38;;;;;;;;;;;;;;;;;;5095388;28;19924;-72
2023/06/28 05:17:05;;;;;;;;;;;;;;;;;;5095387;28;20015;-70
2023/06/28 05:19:32;;;;;;;;;;;;;;;;;;5088444;28;20042;-69
2023/06/28 05:21:59;;;;;;;;;;;;;;;;;;5082027;28;19935;-71
2023/06/28 05:24:26;;;;;;;;;;;;;;;;;;5082551;28;20071;-72
2023/06/28 05:26:53;;;;;;;;;;;;;;;;;;5095010;28;20030;-72
2023/06/28 05:29:20;;;;;;;;;;;;;;;;;;5094763;28;20044;-72
2023/06/28 05:31:47;;;;;;;;;;;;;;;;;;5092310;28;20014;-71
2023/06/28 05:34:14;;;;;;;;;;;;;;;;;;5094524;28;19967;-72
2023/06/28 05:36:41;;;;;;;;;;;;;;;;;;5095150;28;19971;-71
2023/06/28 05:39:08;;;;;;;;;;;;;;;;;;5094693;28;19924;-71
2023/06/28 05:41:35;;;;;;;;;;;;;;;;;;5090526;28;20519;-72
2023/06/28 05:44:02;;;;;;;;;;;;;;;;;;5089827;28;20148;-72
2023/06/28 05:46:29;;;;;;;;;;;;;;;;;;5092514;28;19925;-72
2023/06/28 05:48:58;;;;;;;;;;;;;;;;;;5093151;28;20386;-71
2023/06/28 05:51:25;;;;;;;;;;;;;;;;;;5088509;28;20606;-72
2023/06/28 05:53:52;;;;;;;;;;;;;;;;;;5094141;28;20009;-72
2023/06/28 05:56:19;;;;;;;;;;;;;;;;;;5074979;28;19932;-72
2023/06/28 05:58:46;;;;;;;;;;;;;;;;;;5081956;28;19963;-71
2023/06/28 06:01:13;;;;;;;;;;;;;;;;;;5093769;28;20331;-73
2023/06/28 06:03:40;;;;;;;;;;;;;;;;;;5094402;28;19928;-72
2023/06/28 06:06:07;;;;;;;;;;;;;;;;;;5094205;28;20007;-71
2023/06/28 06:08:34;;;;;;;;;;;;;;;;;;5093690;28;19978;-72
2023/06/28 06:11:02;;;;;;;;;;;;;;;;;;5091718;28;19939;-72
2023/06/28 06:13:28;;;;;;;;;;;;;;;;;;5092998;28;20430;-72
2023/06/28 06:15:55;;;;;;;;;;;;;;;;;;5093653;28;19982;-71
2023/06/28 06:18:22;;;;;;;;;;;;;;;;;;5087351;28;19981;-72
2023/06/28 06:20:50;;;;;;;;;;;;;;;;;;5091787;28;19928;-72
2023/06/28 06:23:17;;;;;;;;;;;;;;;;;;5088113;28;20376;-71
2023/06/28 06:25:44;;;;;;;;;;;;;;;;;;5086142;28;19924;-71
2023/06/28 06:28:11;;;;;;;;;;;;;;;;;;5092653;28;20366;-71
2023/06/28 06:30:38;;;;;;;;;;;;;;;;;;5092464;28;20015;-71
2023/06/28 06:33:05;;;;;;;;;;;;;;;;;;5092575;28;19924;-71
2023/06/28 06:35:32;;;;;;;;;;;;;;;;;;5091921;28;20020;-70
2023/06/28 06:37:59;;;;;;;;;;;;;;;;;;5091505;28;19924;-72
2023/06/28 06:40:26;;;;;;;;;;;;;;;;;;5090504;28;20024;-70
2023/06/28 06:42:54;;;;;;;;;;;;;;;;;;5087372;28;19932;-70
2023/06/28 06:45:21;;;;;;;;;;;;;;;;;;5091994;28;19924;-71
2023/06/28 06:47:48;;;;;;;;;;;;;;;;;;5091761;28;20023;-71
2023/06/28 06:50:17;;;;;;;;;;;;;;;;;;5092577;28;19924;-71
2023/06/28 06:52:44;;;;;;;;;;;;;;;;;;5092701;28;19924;-72
2023/06/28 06:55:11;;;;;;;;;;;;;;;;;;5092012;28;19974;-71
2023/06/28 06:57:38;;;;;;;;;;;;;;;;;;5091729;28;20027;-71
2023/06/28 07:00:05;;;;;;;;;;;;;;;;;;5078136;28;19977;-71
2023/06/28 07:02:32;;;;;;;;;;;;;;;;;;5081661;28;20456;-72
2023/06/28 07:04:59;;;;;;;;;;;;;;;;;;5089077;28;20046;-72
2023/06/28 07:07:26;;;;;;;;;;;;;;;;;;5086020;28;20018;-70
2023/06/28 07:09:53;;;;;;;;;;;;;;;;;;5086468;28;20018;-71
2023/06/28 07:12:20;;;;;;;;;;;;;;;;;;5091516;28;19975;-71
2023/06/28 07:14:49;;;;;;;;;;;;;;;;;;5086986;28;19963;-72
2023/06/28 07:17:16;;;;;;;;;;;;;;;;;;5079778;28;20015;-71
2023/06/28 07:19:43;;;;;;;;;;;;;;;;;;5083376;28;19924;-71
2023/06/28 07:22:10;;;;;;;;;;;;;;;;;;5092212;28;20434;-72
2023/06/28 07:24:37;;;;;;;;;;;;;;;;;;5090511;28;19971;-71
2023/06/28 07:27:04;;;;;;;;;;;;;;;;;;5089540;28;20027;-71
2023/06/28 07:29:31;;;;;;;;;;;;;;;;;;5091439;28;20448;-71
2023/06/28 07:31:58;;;;;;;;;;;;;;;;;;5078006;28;19994;-71
2023/06/28 07:34:25;;;;;;;;;;;;;;;;;;5081641;28;20027;-71
2023/06/28 07:36:52;;;;;;;;;;;;;;;;;;5089807;28;19991;-73
2023/06/28 07:39:19;;;;;;;;;;;;;;;;;;5090409;28;19935;-72
2023/06/28 07:41:46;;;;;;;;;;;;;;;;;;5088608;28;19997;-73
2023/06/28 07:44:14;;;;;;;;;;;;;;;;;;5090160;28;19924;-73
2023/06/28 07:46:41;;;;;;;;;;;;;;;;;;5077832;28;19946;-73
2023/06/28 07:49:08;;;;;;;;;;;;;;;;;;5087987;28;19925;-74
2023/06/28 07:51:36;;;;;;;;;;;;;;;;;;5082183;28;20339;-74
2023/06/28 07:54:03;;;;;;;;;;;;;;;;;;5086626;28;20355;-73
2023/06/28 07:56:30;;;;;;;;;;;;;;;;;;5085765;28;20386;-72
2023/06/28 07:59:00;;;;;;;;;;;;;;;;;;5087882;28;19928;-73
2023/06/28 08:01:27;;;;;;;;;;;;;;;;;;5085435;28;19924;-73
2023/06/28 08:03:54;;;;;;;;;;;;;;;;;;5082200;28;19924;-72
2023/06/28 08:06:22;;;;;;;;;;;;;;;;;;5084405;28;19939;-72
2023/06/28 08:08:50;;;;;;;;;;;;;;;;;;5082869;28;19927;-73
2023/06/28 08:11:17;;;;;;;;;;;;;;;;;;5080162;28;20405;-72
2023/06/28 08:13:45;;;;;;;;;;;;;;;;;;5085515;28;19970;-73
2023/06/28 08:16:22;;;;;;;;;;;;;;;;;;5084909;28;20389;-72
2023/06/28 08:18:49;;;;;;;;;;;;;;;;;;5084277;28;19924;-72
2023/06/28 08:21:16;;;;;;;;;;;;;;;;;;5086008;28;19975;-73
2023/06/28 08:23:43;;;;;;;;;;;;;;;;;;5083095;28;20015;-73
2023/06/28 08:26:10;;;;;;;;;;;;;;;;;;5076294;28;19932;-72
2023/06/28 08:28:37;;;;;;;;;;;;;;;;;;5087322;28;20413;-71
2023/06/28 08:31:04;;;;;;;;;;;;;;;;;;5086761;28;19978;-71
2023/06/28 08:33:32;;;;;;;;;;;;;;;;;;5092078;28;19977;-73
2023/06/28 08:35:59;;;;;;;;;;;;;;;;;;5091632;28;19927;-72
2023/06/28 08:38:26;;;;;;;;;;;;;;;;;;5084954;28;20347;-72
2023/06/28 08:40:53;;;;;;;;;;;;;;;;;;5077628;28;20013;-72
2023/06/28 08:43:21;;;;;;;;;;;;;;;;;;5085611;28;20011;-73
2023/06/28 08:45:48;;;;;;;;;;;;;;;;;;5086837;28;19924;-73
2023/06/28 08:48:15;;;;;;;;;;;;;;;;;;5084487;28;19928;-72
2023/06/28 08:50:43;;;;;;;;;;;;;;;;;;5083405;28;19928;-74
2023/06/28 08:53:10;;;;;;;;;;;;;;;;;;5092792;28;19930;-73
2023/06/28 08:55:37;;;;;;;;;;;;;;;;;;5089591;28;19932;-73
2023/06/28 08:58:04;;;;;;;;;;;;;;;;;;5089298;28;19969;-71
2023/06/28 09:00:31;;;;;;;;;;;;;;;;;;5083915;28;19924;-72
2023/06/28 09:02:58;;;;;;;;;;;;;;;;;;5090885;28;20542;-73
2023/06/28 09:05:25;;;;;;;;;;;;;;;;;;5083469;28;19994;-74
2023/06/28 09:07:52;;;;;;;;;;;;;;;;;;5092756;28;20020;-74
2023/06/28 09:10:19;;;;;;;;;;;;;;;;;;5076140;28;20011;-74
2023/06/28 09:12:46;;;;;;;;;;;;;;;;;;5091556;28;19987;-73
2023/06/28 09:15:13;;;;;;;;;;;;;;;;;;5088151;28;19967;-74
2023/06/28 09:17:40;;;;;;;;;;;;;;;;;;5090461;28;20003;-73
2023/06/28 09:20:07;;;;;;;;;;;;;;;;;;5093937;28;19931;-73
2023/06/28 09:22:34;;;;;;;;;;;;;;;;;;5090656;28;20018;-72
2023/06/28 09:25:02;;;;;;;;;;;;;;;;;;5088280;28;19963;-72
2023/06/28 09:27:29;;;;;;;;;;;;;;;;;;5089774;28;19936;-73
2023/06/28 09:29:56;;;;;;;;;;;;;;;;;;5094079;28;19996;-73
2023/06/28 09:32:23;;;;;;;;;;;;;;;;;;5090718;28;20019;-74
2023/06/28 09:34:50;;;;;;;;;;;;;;;;;;5092825;28;20471;-73
2023/06/28 09:37:17;;;;;;;;;;;;;;;;;;5090196;28;19924;-72
2023/06/28 09:39:44;;;;;;;;;;;;;;;;;;5090285;28;20022;-73
2023/06/28 09:42:11;;;;;;;;;;;;;;;;;;5084900;28;19943;-73
2023/06/28 09:44:38;;;;;;;;;;;;;;;;;;5087161;28;20003;-73
2023/06/28 09:47:05;;;;;;;;;;;;;;;;;;5090817;28;19928;-73
2023/06/28 09:49:32;;;;;;;;;;;;;;;;;;5089487;28;20052;-73
2023/06/28 09:51:59;;;;;;;;;;;;;;;;;;5092134;28;20287;-73
2023/06/28 09:54:26;;;;;;;;;;;;;;;;;;5092330;28;20129;-72
2023/06/28 09:56:53;;;;;;;;;;;;;;;;;;5087496;28;20027;-73
2023/06/28 09:59:20;;;;;;;;;;;;;;;;;;5086634;28;19928;-79
2023/06/28 10:01:47;;;;;;;;;;;;;;;;;;5083320;28;19952;-79
2023/06/28 10:04:14;;;;;;;;;;;;;;;;;;5079428;28;20345;-79
2023/06/28 10:06:41;;;;;;;;;;;;;;;;;;5089470;28;19931;-78
2023/06/28 10:09:09;;;;;;;;;;;;;;;;;;5087405;28;19931;-76
2023/06/28 10:11:36;;;;;;;;;;;;;;;;;;5087174;28;20019;-73
2023/06/28 10:14:03;;;;;;;;;;;;;;;;;;5084234;28;19967;-73
2023/06/28 10:16:30;;;;;;;;;;;;;;;;;;5093830;28;19924;-73
2023/06/28 10:18:57;;;;;;;;;;;;;;;;;;5094123;28;19924;-73
2023/06/28 10:21:24;;;;;;;;;;;;;;;;;;5093660;28;19924;-71
2023/06/28 10:23:51;;;;;;;;;;;;;;;;;;5093868;28;20019;-73
2023/06/28 10:26:18;;;;;;;;;;;;;;;;;;5093234;28;19928;-72
2023/06/28 10:28:45;;;;;;;;;;;;;;;;;;5085336;28;19924;-72
2023/06/28 10:31:12;;;;;;;;;;;;;;;;;;5093215;28;19931;-73
2023/06/28 10:33:39;;;;;;;;;;;;;;;;;;5077945;28;20030;-72
2023/06/28 10:36:06;;;;;;;;;;;;;;;;;;5086656;28;20014;-73
2023/06/28 10:38:33;;;;;;;;;;;;;;;;;;5080963;28;19924;-71
2023/06/28 10:41:01;;;;;;;;;;;;;;;;;;5086429;28;19924;-71
2023/06/28 10:43:28;;;;;;;;;;;;;;;;;;5091314;28;19924;-72
2023/06/28 10:45:55;;;;;;;;;;;;;;;;;;5093452;28;20010;-71
2023/06/28 10:48:22;;;;;;;;;;;;;;;;;;5091958;28;19928;-71
2023/06/28 10:50:49;;;;;;;;;;;;;;;;;;5086895;28;20655;-72
2023/06/28 10:53:16;;;;;;;;;;;;;;;;;;5087584;28;20318;-72
2023/06/28 10:55:43;;;;;;;;;;;;;;;;;;5080429;28;20022;-72
2023/06/28 10:58:10;;;;;;;;;;;;;;;;;;5080538;28;19931;-72
2023/06/28 11:00:36;;;;;;;;;;;;;;;;;;5079394;28;20022;-73
2023/06/28 11:03:04;;;;;;;;;;;;;;;;;;5072550;28;20018;-72
2023/06/28 11:05:31;;;;;;;;;;;;;;;;;;5085823;28;19924;-72
2023/06/28 11:07:58;;;;;;;;;;;;;;;;;;5084210;28;19932;-71
2023/06/28 11:10:25;;;;;;;;;;;;;;;;;;5084892;28;20375;-72
2023/06/28 11:12:52;;;;;;;;;;;;;;;;;;5091239;28;19977;-72
2023/06/28 11:15:19;;;;;;;;;;;;;;;;;;5092573;28;20011;-72
2023/06/28 11:17:46;;;;;;;;;;;;;;;;;;5083264;28;20317;-71
2023/06/28 11:20:13;;;;;;;;;;;;;;;;;;5090390;28;19924;-72
2023/06/28 11:22:40;;;;;;;;;;;;;;;;;;5090022;28;20023;-70
2023/06/28 11:25:07;;;;;;;;;;;;;;;;;;5092342;28;19985;-72
2023/06/28 11:27:34;;;;;;;;;;;;;;;;;;5081403;28;19976;-71
2023/06/28 11:30:01;;;;;;;;;;;;;;;;;;5074466;28;19931;-71
2023/06/28 11:32:28;;;;;;;;;;;;;;;;;;5083028;28;20459;-71
2023/06/28 11:34:55;;;;;;;;;;;;;;;;;;5071773;28;19986;-71
2023/06/28 11:37:23;;;;;;;;;;;;;;;;;;5089346;28;19924;-71
2023/06/28 11:39:50;;;;;;;;;;;;;;;;;;5088776;28;19935;-71
2023/06/28 11:42:17;;;;;;;;;;;;;;;;;;5081527;28;19931;-72
2023/06/28 11:44:45;;;;;;;;;;;;;;;;;;5089528;28;19924;-70
2023/06/28 11:47:12;;;;;;;;;;;;;;;;;;5086890;28;19924;-71
2023/06/28 11:49:39;;;;;;;;;;;;;;;;;;5091201;28;19931;-71
2023/06/28 11:52:06;;;;;;;;;;;;;;;;;;5090531;28;19974;-71
2023/06/28 11:54:33;;;;;;;;;;;;;;;;;;5089456;28;19924;-71
2023/06/28 11:57:01;;;;;;;;;;;;;;;;;;5090716;28;20019;-71
2023/06/28 11:59:29;;;;;;;;;;;;;;;;;;5091235;28;20305;-71
2023/06/28 12:01:56;;;;;;;;;;;;;;;;;;5083246;28;19936;-72
2023/06/28 12:04:23;;;;;;;;;;;;;;;;;;5089330;28;19924;-72
2023/06/28 12:06:50;;;;;;;;;;;;;;;;;;5081517;28;20015;-71
2023/06/28 12:09:17;;;;;;;;;;;;;;;;;;5089090;28;19925;-71
2023/06/28 12:11:44;;;;;;;;;;;;;;;;;;5088064;28;20386;-70
2023/06/28 12:14:11;;;;;;;;;;;;;;;;;;5090216;28;19932;-71
2023/06/28 12:16:39;;;;;;;;;;;;;;;;;;5083545;28;20025;-71
2023/06/28 12:19:06;;;;;;;;;;;;;;;;;;5083271;28;19935;-71
2023/06/28 12:21:33;;;;;;;;;;;;;;;;;;5087970;28;20022;-71
2023/06/28 12:24:00;;;;;;;;;;;;;;;;;;5087941;28;19939;-71
2023/06/28 12:26:27;;;;;;;;;;;;;;;;;;5089082;28;19975;-71
2023/06/28 12:28:55;;;;;;;;;;;;;;;;;;5088997;28;19927;-70
2023/06/28 12:31:22;;;;;;;;;;;;;;;;;;5087975;28;19924;-71
2023/06/28 12:33:50;;;;;;;;;;;;;;;;;;5083846;28;19924;-71
2023/06/28 12:36:17;;;;;;;;;;;;;;;;;;5088460;28;19924;-71
2023/06/28 12:38:43;;;;;;;;;;;;;;;;;;5085796;28;20011;-71
2023/06/28 12:41:10;;;;;;;;;;;;;;;;;;5076159;28;20031;-71
2023/06/28 12:43:37;;;;;;;;;;;;;;;;;;5082785;28;20352;-71
2023/06/28 12:46:05;;;;;;;;;;;;;;;;;;5082735;28;20020;-72
2023/06/28 12:48:32;;;;;;;;;;;;;;;;;;5079735;28;19982;-72
2023/06/28 12:51:00;;;;;;;;;;;;;;;;;;5081418;28;19967;-71
2023/06/28 12:53:27;;;;;;;;;;;;;;;;;;5082168;28;19932;-71
2023/06/28 12:55:54;;;;;;;;;;;;;;;;;;5084210;28;20375;-72
2023/06/28 12:58:21;;;;;;;;;;;;;;;;;;5089332;28;20324;-72
2023/06/28 13:00:49;;;;;;;;;;;;;;;;;;5085496;28;19932;-71
2023/06/28 13:03:16;;;;;;;;;;;;;;;;;;5084095;28;19960;-71
2023/06/28 13:05:43;;;;;;;;;;;;;;;;;;5077957;28;19924;-71
2023/06/28 13:08:10;;;;;;;;;;;;;;;;;;5089091;28;19934;-72
2023/06/28 13:10:37;;;;;;;;;;;;;;;;;;5090763;28;19928;-71
2023/06/28 13:13:04;;;;;;;;;;;;;;;;;;5090061;28;20016;-69
2023/06/28 13:15:31;;;;;;;;;;;;;;;;;;5094167;28;19924;-70
2023/06/28 13:17:58;;;;;;;;;;;;;;;;;;5093337;28;20018;-69
2023/06/28 13:20:25;;;;;;;;;;;;;;;;;;5094098;28;20022;-71
2023/06/28 13:22:52;;;;;;;;;;;;;;;;;;5093229;28;20346;-70
2023/06/28 13:25:19;;;;;;;;;;;;;;;;;;5094626;28;19924;-70
2023/06/28 13:27:46;;;;;;;;;;;;;;;;;;5093883;28;19928;-70
2023/06/28 13:30:13;;;;;;;;;;;;;;;;;;5091998;28;19981;-70
2023/06/28 13:32:40;;;;;;;;;;;;;;;;;;5092995;28;20023;-70
2023/06/28 13:35:07;;;;;;;;;;;;;;;;;;5093803;28;20383;-71
2023/06/28 13:37:34;;;;;;;;;;;;;;;;;;5092263;28;19924;-71
2023/06/28 13:40:02;;;;;;;;;;;;;;;;;;5090552;28;20010;-71
2023/06/28 13:42:29;;;;;;;;;;;;;;;;;;5093213;28;19950;-70
2023/06/28 13:44:56;;;;;;;;;;;;;;;;;;5093229;28;19975;-70
2023/06/28 13:47:23;;;;;;;;;;;;;;;;;;5089582;28;20383;-71
2023/06/28 13:49:50;;;;;;;;;;;;;;;;;;5092028;28;19959;-70
2023/06/28 13:52:17;;;;;;;;;;;;;;;;;;5085926;28;20011;-71
2023/06/28 13:54:44;;;;;;;;;;;;;;;;;;5091739;28;20329;-71
2023/06/28 13:57:11;;;;;;;;;;;;;;;;;;5092672;28;20371;-72
2023/06/28 13:59:38;;;;;;;;;;;;;;;;;;5086564;28;19925;-72
2023/06/28 14:02:06;;;;;;;;;;;;;;;;;;5089492;28;20026;-71
2023/06/28 14:04:33;;;;;;;;;;;;;;;;;;5089990;28;19928;-72
2023/06/28 14:07:00;;;;;;;;;;;;;;;;;;5084846;28;20004;-72
2023/06/28 14:09:27;;;;;;;;;;;;;;;;;;5077763;28;20019;-72
2023/06/28 14:11:54;;;;;;;;;;;;;;;;;;5091513;28;19931;-72
2023/06/28 14:14:21;;;;;;;;;;;;;;;;;;5091393;28;19931;-71
2023/06/28 14:16:48;;;;;;;;;;;;;;;;;;5091687;28;20007;-72
2023/06/28 14:19:15;;;;;;;;;;;;;;;;;;5087708;28;19924;-72
2023/06/28 14:21:42;;;;;;;;;;;;;;;;;;5090967;28;20014;-72
2023/06/28 14:24:10;;;;;;;;;;;;;;;;;;5093196;28;19924;-71
2023/06/28 14:26:37;;;;;;;;;;;;;;;;;;5090719;28;19955;-71
2023/06/28 14:29:05;;;;;;;;;;;;;;;;;;5087990;28;20093;-72
2023/06/28 14:31:32;;;;;;;;;;;;;;;;;;5092370;28;19927;-71
2023/06/28 14:33:59;;;;;;;;;;;;;;;;;;5092767;28;19964;-72
2023/06/28 14:36:26;;;;;;;;;;;;;;;;;;5093010;28;20447;-72
2023/06/28 14:38:53;;;;;;;;;;;;;;;;;;5090341;28;20450;-70
2023/06/28 14:41:20;;;;;;;;;;;;;;;;;;5088839;28;20311;-72
2023/06/28 14:43:47;;;;;;;;;;;;;;;;;;5088970;28;20005;-71
2023/06/28 14:46:14;;;;;;;;;;;;;;;;;;5090315;28;19924;-72
2023/06/28 14:48:41;;;;;;;;;;;;;;;;;;5088946;28;19964;-72
2023/06/28 14:51:08;;;;;;;;;;;;;;;;;;5088808;28;19930;-72
2023/06/28 14:53:37;;;;;;;;;;;;;;;;;;5089088;28;20494;-72
2023/06/28 14:56:04;;;;;;;;;;;;;;;;;;5089552;28;20411;-72
2023/06/28 14:58:31;;;;;;;;;;;;;;;;;;5086828;28;19975;-72
2023/06/28 15:00:58;;;;;;;;;;;;;;;;;;5076164;28;19978;-72
2023/06/28 15:03:25;;;;;;;;;;;;;;;;;;5084484;28;20386;-71
2023/06/28 15:05:52;;;;;;;;;;;;;;;;;;5086534;28;20016;-72
2023/06/28 15:08:19;;;;;;;;;;;;;;;;;;5088324;28;20005;-71
2023/06/28 15:10:46;;;;;;;;;;;;;;;;;;5088069;28;19924;-72
2023/06/28 15:13:13;;;;;;;;;;;;;;;;;;5089828;28;19931;-72
2023/06/28 15:15:40;;;;;;;;;;;;;;;;;;5088327;28;20019;-72
2023/06/28 15:18:07;;;;;;;;;;;;;;;;;;5081939;28;20367;-71
2023/06/28 15:20:34;;;;;;;;;;;;;;;;;;5081683;28;19951;-71
2023/06/28 15:23:01;;;;;;;;;;;;;;;;;;5087113;28;19970;-72
2023/06/28 15:25:28;;;;;;;;;;;;;;;;;;5087717;28;20452;-71
2023/06/28 15:27:55;;;;;;;;;;;;;;;;;;5087862;28;19931;-71
2023/06/28 15:30:22;;;;;;;;;;;;;;;;;;5088040;28;19946;-72
2023/06/28 15:32:49;;;;;;;;;;;;;;;;;;5090381;28;20417;-71
2023/06/28 15:35:16;;;;;;;;;;;;;;;;;;5090642;28;19932;-72
2023/06/28 15:37:43;;;;;;;;;;;;;;;;;;5088972;28;19924;-72
2023/06/28 15:40:10;;;;;;;;;;;;;;;;;;5090694;28;19963;-71
2023/06/28 15:42:37;;;;;;;;;;;;;;;;;;5090112;28;20067;-72
2023/06/28 15:45:04;;;;;;;;;;;;;;;;;;5089482;28;19924;-71
2023/06/28 15:47:31;;;;;;;;;;;;;;;;;;5087347;28;20040;-71
2023/06/28 15:49:58;;;;;;;;;;;;;;;;;;5077376;28;19955;-71
2023/06/28 15:52:29;;;;;;;;;;;;;;;;;;5082479;28;20019;-71
2023/06/28 15:54:56;;;;;;;;;;;;;;;;;;5089261;28;19928;-71
2023/06/28 15:57:23;;;;;;;;;;;;;;;;;;5089366;28;20015;-72
2023/06/28 15:59:50;;;;;;;;;;;;;;;;;;5088036;28;19975;-72
2023/06/28 16:02:17;;;;;;;;;;;;;;;;;;5089850;28;19987;-72
2023/06/28 16:04:44;;;;;;;;;;;;;;;;;;5091326;28;19924;-72
2023/06/28 16:07:10;;;;;;;;;;;;;;;;;;5082262;28;19924;-72
2023/06/28 16:09:37;;;;;;;;;;;;;;;;;;5090943;28;19955;-72
2023/06/28 16:12:04;;;;;;;;;;;;;;;;;;5088180;28;19924;-72
2023/06/28 16:14:31;;;;;;;;;;;;;;;;;;5072505;28;19931;-72
2023/06/28 16:16:58;;;;;;;;;;;;;;;;;;5078712;28;19924;-72
2023/06/28 16:19:26;;;;;;;;;;;;;;;;;;5087559;28;19970;-71
2023/06/28 16:21:53;;;;;;;;;;;;;;;;;;5089086;28;20383;-72
2023/06/28 16:24:20;;;;;;;;;;;;;;;;;;5087761;28;20368;-72
2023/06/28 16:26:47;;;;;;;;;;;;;;;;;;5079436;28;19969;-70
2023/06/28 16:29:14;;;;;;;;;;;;;;;;;;5090462;28;19924;-70
2023/06/28 16:31:41;;;;;;;;;;;;;;;;;;5088543;28;20030;-71
2023/06/28 16:34:08;;;;;;;;;;;;;;;;;;5083682;28;20366;-71
2023/06/28 16:36:35;;;;;;;;;;;;;;;;;;5090238;28;19924;-71
2023/06/28 16:39:02;;;;;;;;;;;;;;;;;;5090050;28;19927;-71
2023/06/28 16:41:29;;;;;;;;;;;;;;;;;;5079730;28;19938;-71
2023/06/28 16:43:56;;;;;;;;;;;;;;;;;;5087114;28;19967;-70